createdAt,value
2023-04-15T00:01:52.492Z,94342.84
2023-04-15T00:04:19.319Z,94340.06
2023-04-15T00:06:55.409Z,94346.34
2023-04-15T00:09:22.105Z,94344.03
2023-04-15T00:11:50.315Z,94363.56
2023-04-15T00:14:17.518Z,94388.66
2023-04-15T00:16:44.329Z,94378.50
2023-04-15T00:19:11.301Z,94372.16
2023-04-15T00:21:37.998Z,94373.97
2023-04-15T00:24:04.645Z,94367.44
2023-04-15T00:26:31.333Z,94366.44
2023-04-15T00:28:58.458Z,94362.66
2023-04-15T00:31:25.528Z,94364.06
2023-04-15T00:33:52.593Z,94358.97
2023-04-15T00:36:19.509Z,94364.22
2023-04-15T00:38:46.618Z,94360.81
2023-04-15T00:41:13.322Z,94365.50
2023-04-15T00:43:40.110Z,94363.16
2023-04-15T00:46:07.931Z,94369.69
2023-04-15T00:48:34.793Z,94374.75
2023-04-15T00:51:02.068Z,94386.81
2023-04-15T00:53:28.961Z,94379.28
2023-04-15T00:55:56.272Z,94378.13
2023-04-15T00:58:23.925Z,94371.63
2023-04-15T01:00:54.336Z,94373.81
2023-04-15T01:03:21.368Z,94375.63
2023-04-15T01:05:48.801Z,94380.78
2023-04-15T01:08:15.536Z,94381.59
2023-04-15T01:10:42.313Z,94382.00
2023-04-15T01:13:09.252Z,94379.78
2023-04-15T01:15:36.214Z,94380.94
2023-04-15T01:18:03.250Z,94366.44
2023-04-15T01:20:29.898Z,94367.66
2023-04-15T01:22:56.793Z,94367.63
2023-04-15T01:25:42.529Z,94369.75
2023-04-15T01:28:09.885Z,94359.19
2023-04-15T01:30:36.987Z,94353.06
2023-04-15T01:33:04.116Z,94360.38
2023-04-15T01:35:31.097Z,94360.25
2023-04-15T01:38:03.733Z,94363.09
2023-04-15T01:40:30.863Z,94363.81
2023-04-15T01:42:58.532Z,94368.53
2023-04-15T01:45:25.343Z,94381.59
2023-04-15T01:47:52.064Z,94379.22
2023-04-15T01:50:19.060Z,94374.09
2023-04-15T01:52:45.678Z,94384.19
2023-04-15T01:55:13.268Z,94375.53
2023-04-15T01:57:40.193Z,94387.47
2023-04-15T02:00:07.841Z,94390.25
2023-04-15T02:02:41.008Z,94399.75
2023-04-15T02:05:08.083Z,94394.34
2023-04-15T02:07:34.731Z,94386.53
2023-04-15T02:10:02.880Z,94382.06
2023-04-15T02:12:29.584Z,94385.19
2023-04-15T02:14:56.769Z,94390.69
2023-04-15T02:17:23.452Z,94379.59
2023-04-15T02:19:50.337Z,94380.25
2023-04-15T02:22:18.981Z,94381.41
2023-04-15T02:24:47.079Z,94377.25
2023-04-15T02:27:18.244Z,94363.75
2023-04-15T02:29:45.798Z,94376.31
2023-04-15T02:32:15.591Z,94381.00
2023-04-15T02:34:42.897Z,94378.25
2023-04-15T02:37:11.388Z,94366.06
2023-04-15T02:39:39.191Z,94365.72
2023-04-15T02:42:08.968Z,94360.03
2023-04-15T02:44:36.872Z,94378.34
2023-04-15T02:47:07.147Z,94385.47
2023-04-15T02:49:34.081Z,94380.59
2023-04-15T02:52:00.719Z,94381.06
2023-04-15T02:54:30.484Z,94402.31
2023-04-15T02:56:57.440Z,94403.56
2023-04-15T02:59:24.212Z,94404.06
2023-04-15T03:01:51.929Z,94402.53
2023-04-15T03:04:18.898Z,94407.34
2023-04-15T03:06:45.511Z,94410.91
2023-04-15T03:09:12.482Z,94398.72
2023-04-15T03:11:40.819Z,94402.38
2023-04-15T03:14:09.559Z,94407.31
2023-04-15T03:16:40.162Z,94408.25
2023-04-15T03:19:06.905Z,94423.25
2023-04-15T03:21:34.543Z,94429.34
2023-04-15T03:24:01.607Z,94423.59
2023-04-15T03:26:32.233Z,94418.84
2023-04-15T03:29:02.534Z,94423.09
2023-04-15T03:31:29.949Z,94427.84
2023-04-15T03:33:56.694Z,94440.81
2023-04-15T03:36:23.841Z,94429.53
2023-04-15T03:38:50.485Z,94436.31
2023-04-15T03:41:17.549Z,94447.41
2023-04-15T03:43:44.240Z,94432.94
2023-04-15T03:46:11.192Z,94441.81
2023-04-15T03:48:37.916Z,94453.66
2023-04-15T03:51:04.683Z,94455.22
2023-04-15T03:53:31.414Z,94461.69
2023-04-15T03:55:59.078Z,94455.50
2023-04-15T03:58:25.903Z,94465.78
2023-04-15T04:00:52.846Z,94455.19
2023-04-15T04:03:21.487Z,94455.91
2023-04-15T04:05:48.490Z,94465.13
2023-04-15T04:08:16.404Z,94458.78
2023-04-15T04:10:43.145Z,94477.22
2023-04-15T04:13:09.844Z,94466.56
2023-04-15T04:15:36.607Z,94458.66
2023-04-15T04:18:03.832Z,94462.63
2023-04-15T04:20:32.141Z,94472.06
2023-04-15T04:22:59.807Z,94472.06
2023-04-15T04:25:27.360Z,94470.50
2023-04-15T04:27:53.891Z,94467.63
2023-04-15T04:30:20.520Z,94473.34
2023-04-15T04:32:47.301Z,94465.19
2023-04-15T04:35:14.035Z,94469.56
2023-04-15T04:37:40.833Z,94461.47
2023-04-15T04:40:08.170Z,94467.63
2023-04-15T04:42:35.707Z,94478.50
2023-04-15T04:45:03.581Z,94478.97
2023-04-15T04:47:31.283Z,94470.34
2023-04-15T04:49:57.905Z,94485.16
2023-04-15T04:52:24.544Z,94483.28
2023-04-15T04:54:51.114Z,94479.31
2023-04-15T04:57:17.948Z,94481.31
2023-04-15T04:59:44.666Z,94489.63
2023-04-15T05:02:11.510Z,94500.59
2023-04-15T05:04:38.246Z,94501.56
2023-04-15T05:07:04.880Z,94502.59
2023-04-15T05:09:32.582Z,94501.63
2023-04-15T05:11:59.490Z,94506.56
2023-04-15T05:14:26.203Z,94507.63
2023-04-15T05:16:52.752Z,94518.44
2023-04-15T05:19:19.591Z,94518.03
2023-04-15T05:21:46.234Z,94528.78
2023-04-15T05:24:12.983Z,94524.16
2023-04-15T05:26:39.573Z,94521.69
2023-04-15T05:29:06.390Z,94517.97
2023-04-15T05:31:33.098Z,94518.41
2023-04-15T05:34:00.228Z,94525.44
2023-04-15T05:36:27.805Z,94527.28
2023-04-15T05:38:54.434Z,94517.03
2023-04-15T05:41:21.662Z,94514.63
2023-04-15T05:43:48.353Z,94516.41
2023-04-15T05:46:15.114Z,94515.16
2023-04-15T05:48:41.797Z,94516.28
2023-04-15T05:51:08.489Z,94514.72
2023-04-15T05:53:35.236Z,94509.78
2023-04-15T05:56:02.115Z,94513.94
2023-04-15T05:58:32.488Z,94517.19
2023-04-15T06:01:05.386Z,94530.78
2023-04-15T06:03:32.216Z,94534.94
2023-04-15T06:05:58.969Z,94533.88
2023-04-15T06:08:25.983Z,94537.72
2023-04-15T06:10:52.778Z,94537.56
2023-04-15T06:13:19.466Z,94539.13
2023-04-15T06:15:46.097Z,94533.50
2023-04-15T06:18:13.153Z,94543.25
2023-04-15T06:20:39.801Z,94532.56
2023-04-15T06:23:06.861Z,94540.94
2023-04-15T06:25:33.574Z,94549.84
2023-04-15T06:28:00.327Z,94545.22
2023-04-15T06:30:27.049Z,94543.34
2023-04-15T06:32:55.221Z,94559.00
2023-04-15T06:35:22.231Z,94562.22
2023-04-15T06:37:48.913Z,94563.56
2023-04-15T06:40:15.586Z,94568.81
2023-04-15T06:42:42.370Z,94569.25
2023-04-15T06:45:09.500Z,94566.13
2023-04-15T06:47:36.335Z,94566.97
2023-04-15T06:50:04.039Z,94566.97
2023-04-15T06:52:31.670Z,94563.38
2023-04-15T06:54:59.736Z,94575.78
2023-04-15T06:57:26.447Z,94569.72
2023-04-15T06:59:54.689Z,94568.16
2023-04-15T07:02:21.529Z,94570.91
2023-04-15T07:04:48.958Z,94567.41
2023-04-15T07:07:16.938Z,94566.00
2023-04-15T07:09:45.708Z,94570.31
2023-04-15T07:12:12.299Z,94576.00
2023-04-15T07:14:39.001Z,94574.63
2023-04-15T07:17:05.681Z,94572.66
2023-04-15T07:19:32.391Z,94567.84
2023-04-15T07:21:59.130Z,94564.38
2023-04-15T07:24:26.870Z,94567.72
2023-04-15T07:27:00.833Z,94566.53
2023-04-15T07:29:28.043Z,94561.56
2023-04-15T07:31:54.801Z,94578.81
2023-04-15T07:34:21.494Z,94569.31
2023-04-15T07:36:52.151Z,94576.41
2023-04-15T07:39:19.069Z,94568.78
2023-04-15T07:41:46.599Z,94557.03
2023-04-15T07:44:13.294Z,94563.00
2023-04-15T07:46:40.101Z,94555.44
2023-04-15T07:49:07.572Z,94567.34
2023-04-15T07:51:34.214Z,94568.53
2023-04-15T07:54:00.806Z,94579.28
2023-04-15T07:56:27.836Z,94585.09
2023-04-15T07:58:54.521Z,94583.34
2023-04-15T08:01:21.667Z,94587.31
2023-04-15T08:03:48.673Z,94586.28
2023-04-15T08:06:15.584Z,94582.47
2023-04-15T08:08:43.121Z,94576.16
2023-04-15T08:11:10.962Z,94571.38
2023-04-15T08:13:37.585Z,94571.47
2023-04-15T08:16:14.742Z,94571.94
2023-04-15T08:18:41.904Z,94587.31
2023-04-15T08:21:09.393Z,94576.53
2023-04-15T08:23:36.168Z,94576.00
2023-04-15T08:26:02.815Z,94578.56
2023-04-15T08:28:29.552Z,94574.06
2023-04-15T08:30:56.250Z,94568.59
2023-04-15T08:33:23.004Z,94566.09
2023-04-15T08:35:49.749Z,94566.41
2023-04-15T08:38:16.902Z,94556.88
2023-04-15T08:40:44.945Z,94555.47
2023-04-15T08:43:13.365Z,94554.22
2023-04-15T08:45:40.021Z,94553.09
2023-04-15T08:48:08.772Z,94548.84
2023-04-15T08:50:35.437Z,94556.00
2023-04-15T08:53:02.064Z,94547.25
2023-04-15T08:55:30.804Z,94537.72
2023-04-15T08:57:57.479Z,94543.50
2023-04-15T09:00:24.123Z,94545.44
2023-04-15T09:02:51.129Z,94535.06
2023-04-15T09:05:17.888Z,94528.75
2023-04-15T09:07:44.528Z,94528.81
2023-04-15T09:10:11.349Z,94531.22
2023-04-15T09:12:38.261Z,94530.50
2023-04-15T09:15:05.182Z,94529.31
2023-04-15T09:17:33.364Z,94518.28
2023-04-15T09:20:20.375Z,94517.19
2023-04-15T09:22:48.403Z,94512.19
2023-04-15T09:25:14.930Z,94506.69
2023-04-15T09:27:51.649Z,94506.13
2023-04-15T09:30:18.783Z,94507.72
2023-04-15T09:33:08.174Z,94517.16
2023-04-15T09:35:37.691Z,94516.31
2023-04-15T09:38:05.822Z,94515.38
2023-04-15T09:40:34.436Z,94511.91
2023-04-15T09:43:05.208Z,94504.91
2023-04-15T09:45:32.543Z,94502.50
2023-04-15T09:47:59.807Z,94509.00
2023-04-15T09:50:29.602Z,94509.25
2023-04-15T09:52:56.525Z,94512.97
2023-04-15T09:55:23.179Z,94507.31
2023-04-15T09:57:49.917Z,94517.38
2023-04-15T10:00:16.779Z,94524.94
2023-04-15T10:02:47.525Z,94511.75
2023-04-15T10:05:15.646Z,94520.06
2023-04-15T10:07:42.863Z,94506.75
2023-04-15T10:10:10.963Z,94508.84
2023-04-15T10:12:38.265Z,94502.72
2023-04-15T10:15:05.597Z,94495.97
2023-04-15T10:17:37.099Z,94491.00
2023-04-15T10:20:05.378Z,94495.03
2023-04-15T10:22:32.960Z,94487.66
2023-04-15T10:25:02.567Z,94486.41
2023-04-15T10:27:29.377Z,94473.00
2023-04-15T10:29:57.209Z,94465.22
2023-04-15T10:32:25.624Z,94464.78
2023-04-15T10:34:54.444Z,94459.91
2023-04-15T10:37:41.592Z,94468.88
2023-04-15T10:40:38.451Z,94461.66
2023-04-15T10:43:05.429Z,94457.88
2023-04-15T10:45:33.509Z,94459.34
2023-04-15T10:48:03.629Z,94462.00
2023-04-15T10:50:34.015Z,94458.25
2023-04-15T10:53:03.581Z,94465.91
2023-04-15T10:55:33.520Z,94457.47
2023-04-15T10:58:04.069Z,94460.13
2023-04-15T11:00:32.174Z,94463.66
2023-04-15T11:03:12.222Z,94465.34
2023-04-15T11:05:42.196Z,94461.38
2023-04-15T11:08:09.240Z,94455.22
2023-04-15T11:10:35.898Z,94464.53
2023-04-15T11:13:15.042Z,94456.34
2023-04-15T11:15:44.871Z,94451.22
2023-04-15T11:18:13.423Z,94452.53
2023-04-15T11:20:41.473Z,94450.56
2023-04-15T11:23:15.007Z,94441.97
2023-04-15T11:25:43.296Z,94434.75
2023-04-15T11:28:11.084Z,94434.97
2023-04-15T11:30:38.860Z,94442.13
2023-04-15T11:33:09.259Z,94438.25
2023-04-15T11:35:36.112Z,94444.88
2023-04-15T11:38:03.894Z,94445.41
2023-04-15T11:40:31.422Z,94450.47
2023-04-15T11:43:24.354Z,94451.50
2023-04-15T11:46:01.145Z,94441.09
2023-04-15T11:48:29.204Z,94446.75
2023-04-15T11:50:56.978Z,94433.16
2023-04-15T11:53:24.257Z,94434.47
2023-04-15T11:55:52.186Z,94429.38
2023-04-15T11:58:40.477Z,94430.47
2023-04-15T12:01:08.925Z,94418.59
2023-04-15T12:03:49.632Z,94425.94
2023-04-15T12:06:19.460Z,94430.91
2023-04-15T12:08:55.468Z,94426.69
2023-04-15T12:11:31.660Z,94424.59
2023-04-15T12:13:59.710Z,94423.22
2023-04-15T12:16:28.092Z,94427.25
2023-04-15T12:18:56.284Z,94437.00
2023-04-15T12:21:24.101Z,94420.53
2023-04-15T12:23:54.843Z,94428.13
2023-04-15T12:26:33.651Z,94419.22
2023-04-15T12:29:10.956Z,94420.31
2023-04-15T12:31:38.267Z,94424.84
2023-04-15T12:34:08.053Z,94433.13
2023-04-15T12:36:37.390Z,94433.22
2023-04-15T12:39:04.897Z,94426.13
2023-04-15T12:41:32.119Z,94430.69
2023-04-15T12:43:59.244Z,94412.44
2023-04-15T12:46:26.075Z,94433.94
2023-04-15T12:48:53.418Z,94423.44
2023-04-15T12:51:21.835Z,94423.00
2023-04-15T12:53:49.745Z,94430.75
2023-04-15T12:56:17.033Z,94428.22
2023-04-15T12:58:44.845Z,94434.25
2023-04-15T13:01:11.704Z,94432.09
2023-04-15T13:03:38.709Z,94436.28
2023-04-15T13:06:06.098Z,94439.16
2023-04-15T13:08:33.239Z,94428.88
2023-04-15T13:11:00.474Z,94434.31
2023-04-15T13:13:27.474Z,94427.66
2023-04-15T13:15:54.073Z,94430.56
2023-04-15T13:18:20.831Z,94424.53
2023-04-15T13:20:47.663Z,94423.94
2023-04-15T13:23:14.874Z,94424.94
2023-04-15T13:25:41.561Z,94415.03
2023-04-15T13:28:08.196Z,94412.88
2023-04-15T13:30:34.923Z,94418.59
2023-04-15T13:33:01.674Z,94414.94
2023-04-15T13:35:29.761Z,94423.06
2023-04-15T13:37:56.525Z,94425.81
2023-04-15T13:40:23.157Z,94415.78
2023-04-15T13:42:51.941Z,94411.22
2023-04-15T13:45:18.498Z,94420.38
2023-04-15T13:47:45.395Z,94412.03
2023-04-15T13:50:12.140Z,94410.47
2023-04-15T13:52:39.981Z,94408.84
2023-04-15T13:55:19.457Z,94399.63
2023-04-15T13:57:47.992Z,94406.03
2023-04-15T14:00:14.935Z,94392.88
2023-04-15T14:02:42.449Z,94390.91
2023-04-15T14:05:09.755Z,94394.25
2023-04-15T14:07:36.621Z,94401.84
2023-04-15T14:10:04.025Z,94397.78
2023-04-15T14:12:30.903Z,94401.69
2023-04-15T14:14:57.668Z,94401.44
2023-04-15T14:17:24.331Z,94410.22
2023-04-15T14:19:51.151Z,94402.03
2023-04-15T14:22:18.978Z,94405.47
2023-04-15T14:24:45.786Z,94408.91
2023-04-15T14:27:13.509Z,94401.38
2023-04-15T14:29:40.168Z,94403.84
2023-04-15T14:32:12.021Z,94408.41
2023-04-15T14:34:39.693Z,94404.56
2023-04-15T14:37:06.565Z,94402.94
2023-04-15T14:39:34.158Z,94396.25
2023-04-15T14:42:01.458Z,94405.03
2023-04-15T14:44:28.232Z,94405.38
2023-04-15T14:46:55.900Z,94401.66
2023-04-15T14:49:22.932Z,94404.50
2023-04-15T14:51:49.677Z,94401.63
2023-04-15T14:54:16.736Z,94410.63
2023-04-15T14:56:43.478Z,94400.81
2023-04-15T14:59:10.154Z,94401.94
2023-04-15T15:01:37.090Z,94406.03
2023-04-15T15:04:04.206Z,94403.09
2023-04-15T15:06:31.613Z,94393.13
2023-04-15T15:08:58.304Z,94397.22
2023-04-15T15:11:25.538Z,94396.13
2023-04-15T15:13:52.198Z,94397.66
2023-04-15T15:16:19.070Z,94392.41
2023-04-15T15:18:46.728Z,94392.47
2023-04-15T15:21:13.342Z,94387.84
2023-04-15T15:23:39.975Z,94393.56
2023-04-15T15:26:06.793Z,94389.19
2023-04-15T15:28:34.018Z,94385.88
2023-04-15T15:31:00.805Z,94389.50
2023-04-15T15:33:30.130Z,94384.75
2023-04-15T15:35:58.007Z,94383.13
2023-04-15T15:38:24.587Z,94385.81
2023-04-15T15:40:52.168Z,94397.22
2023-04-15T15:43:18.780Z,94386.16
2023-04-15T15:45:45.767Z,94388.56
2023-04-15T15:48:12.384Z,94390.47
2023-04-15T15:50:39.251Z,94391.50
2023-04-15T15:53:05.924Z,94395.53
2023-04-15T15:55:32.753Z,94399.66
2023-04-15T15:57:59.524Z,94391.44
2023-04-15T16:00:26.500Z,94392.81
2023-04-15T16:03:06.812Z,94407.72
2023-04-15T16:05:34.803Z,94399.59
2023-04-15T16:08:01.879Z,94395.09
2023-04-15T16:10:28.907Z,94399.19
2023-04-15T16:12:55.869Z,94397.16
2023-04-15T16:15:23.132Z,94396.91
2023-04-15T16:17:49.874Z,94395.63
2023-04-15T16:20:16.793Z,94396.41
2023-04-15T16:22:43.743Z,94392.91
2023-04-15T16:25:10.617Z,94401.25
2023-04-15T16:27:54.164Z,94394.78
2023-04-15T16:30:24.199Z,94394.25
2023-04-15T16:32:51.507Z,94388.06
2023-04-15T16:35:18.548Z,94383.47
2023-04-15T16:37:45.384Z,94378.63
2023-04-15T16:40:12.226Z,94393.13
2023-04-15T16:42:39.861Z,94398.41
2023-04-15T16:45:06.661Z,94397.78
2023-04-15T16:47:33.490Z,94399.94
2023-04-15T16:50:00.137Z,94400.13
2023-04-15T16:52:29.042Z,94397.28
2023-04-15T16:54:55.980Z,94402.97
2023-04-15T16:57:23.707Z,94396.59
2023-04-15T16:59:52.452Z,94403.75
2023-04-15T17:02:20.207Z,94401.84
2023-04-15T17:04:47.052Z,94402.38
2023-04-15T17:07:13.728Z,94402.63
2023-04-15T17:09:40.801Z,94416.50
2023-04-15T17:12:07.498Z,94410.53
2023-04-15T17:14:35.101Z,94418.78
2023-04-15T17:17:02.026Z,94419.19
2023-04-15T17:19:29.822Z,94413.66
2023-04-15T17:21:58.148Z,94420.34
2023-04-15T17:24:27.927Z,94422.59
2023-04-15T17:26:54.827Z,94415.78
2023-04-15T17:29:21.542Z,94433.56
2023-04-15T17:31:48.238Z,94436.94
2023-04-15T17:34:16.027Z,94442.13
2023-04-15T17:36:42.930Z,94437.56
2023-04-15T17:39:09.801Z,94441.22
2023-04-15T17:41:36.414Z,94440.44
2023-04-15T17:44:03.458Z,94450.13
2023-04-15T17:46:30.892Z,94444.09
2023-04-15T17:48:57.682Z,94445.09
2023-04-15T17:51:24.314Z,94461.88
2023-04-15T17:54:06.746Z,94458.34
2023-04-15T17:56:34.022Z,94465.22
2023-04-15T17:59:02.572Z,94466.13
2023-04-15T18:01:29.481Z,94470.88
2023-04-15T18:03:56.518Z,94469.13
2023-04-15T18:06:23.570Z,94475.44
2023-04-15T18:08:50.321Z,94474.56
2023-04-15T18:11:17.732Z,94473.44
2023-04-15T18:13:44.291Z,94478.13
2023-04-15T18:16:11.305Z,94485.88
2023-04-15T18:18:37.879Z,94490.06
2023-04-15T18:21:04.724Z,94500.06
2023-04-15T18:23:31.365Z,94493.63
2023-04-15T18:25:58.134Z,94495.28
2023-04-15T18:28:24.774Z,94500.44
2023-04-15T18:30:51.528Z,94492.28
2023-04-15T18:33:18.259Z,94501.09
2023-04-15T18:35:44.935Z,94506.94
2023-04-15T18:38:11.633Z,94504.72
2023-04-15T18:40:38.300Z,94506.84
2023-04-15T18:43:04.942Z,94507.75
2023-04-15T18:45:31.725Z,94500.81
2023-04-15T18:47:58.561Z,94502.13
2023-04-15T18:50:25.183Z,94507.44
2023-04-15T18:52:51.918Z,94502.75
2023-04-15T18:55:19.259Z,94501.88
2023-04-15T18:57:46.703Z,94506.50
2023-04-15T19:00:16.028Z,94511.59
2023-04-15T19:02:43.331Z,94513.53
2023-04-15T19:05:10.452Z,94513.16
2023-04-15T19:07:37.298Z,94513.78
2023-04-15T19:10:06.863Z,94518.63
2023-04-15T19:12:33.962Z,94520.94
2023-04-15T19:15:01.780Z,94511.41
2023-04-15T19:17:28.579Z,94521.13
2023-04-15T19:19:56.251Z,94522.22
2023-04-15T19:22:23.193Z,94519.38
2023-04-15T19:24:51.896Z,94517.53
2023-04-15T19:27:18.640Z,94527.31
2023-04-15T19:29:45.445Z,94530.41
2023-04-15T19:32:13.996Z,94524.28
2023-04-15T19:34:41.292Z,94518.66
2023-04-15T19:37:07.859Z,94526.34
2023-04-15T19:39:34.796Z,94532.31
2023-04-15T19:42:02.722Z,94516.47
2023-04-15T19:44:29.591Z,94521.31
2023-04-15T19:46:56.635Z,94489.75
2023-04-15T19:49:23.267Z,94516.00
2023-04-15T19:51:50.443Z,94519.09
2023-04-15T19:54:17.097Z,94518.53
2023-04-15T19:56:43.805Z,94526.00
2023-04-15T19:59:12.664Z,94524.28
2023-04-15T20:01:39.925Z,94518.53
2023-04-15T20:04:06.996Z,94523.34
2023-04-15T20:06:33.878Z,94516.25
2023-04-15T20:09:01.096Z,94521.91
2023-04-15T20:12:47.477Z,94533.22
2023-04-15T20:14:15.816Z,94536.03
2023-04-15T20:16:43.046Z,94541.03
2023-04-15T20:19:14.159Z,94540.13
2023-04-15T20:21:40.866Z,94545.59
2023-04-15T20:24:07.632Z,94538.72
2023-04-15T20:26:34.478Z,94546.19
2023-04-15T20:29:01.094Z,94543.41
2023-04-15T20:31:27.998Z,94541.56
2023-04-15T20:33:54.797Z,94543.63
2023-04-15T20:36:21.593Z,94554.25
2023-04-15T20:38:48.240Z,94547.50
2023-04-15T20:41:15.490Z,94558.22
2023-04-15T20:43:42.043Z,94556.00
2023-04-15T20:46:17.850Z,94560.38
2023-04-15T20:48:47.646Z,94551.97
2023-04-15T20:51:15.296Z,94551.38
2023-04-15T20:53:42.234Z,94561.69
2023-04-15T20:56:08.888Z,94560.59
2023-04-15T20:58:35.609Z,94562.97
2023-04-15T21:01:02.368Z,94560.44
2023-04-15T21:03:29.370Z,94559.19
2023-04-15T21:05:56.164Z,94546.53
2023-04-15T21:08:29.244Z,94566.88
2023-04-15T21:10:56.804Z,94562.56
2023-04-15T21:13:23.463Z,94565.50
2023-04-15T21:15:53.413Z,94567.53
2023-04-15T21:18:21.072Z,94575.81
2023-04-15T21:21:09.322Z,94568.63
2023-04-15T21:23:36.082Z,94574.63
2023-04-15T21:26:02.669Z,94572.53
2023-04-15T21:28:29.994Z,94577.03
2023-04-15T21:30:56.986Z,94575.13
2023-04-15T21:33:24.272Z,94586.72
2023-04-15T21:35:51.369Z,94587.50
2023-04-15T21:38:18.222Z,94589.84
2023-04-15T21:40:44.843Z,94581.22
2023-04-15T21:43:11.711Z,94583.13
2023-04-15T21:45:43.686Z,94585.59
2023-04-15T21:48:30.556Z,94585.00
2023-04-15T21:51:00.671Z,94594.09
2023-04-15T21:53:27.346Z,94591.72
2023-04-15T21:55:54.088Z,94593.53
2023-04-15T21:58:20.876Z,94596.41
2023-04-15T22:00:47.666Z,94594.84
2023-04-15T22:03:14.753Z,94592.38
2023-04-15T22:05:44.007Z,94596.63
2023-04-15T22:08:10.852Z,94595.06
2023-04-15T22:10:38.717Z,94589.88
2023-04-15T22:13:08.660Z,94597.50
2023-04-15T22:15:36.258Z,94602.06
2023-04-15T22:18:04.626Z,94598.25
2023-04-15T22:20:31.722Z,94597.09
2023-04-15T22:22:58.384Z,94600.16
2023-04-15T22:25:25.115Z,94598.19
2023-04-15T22:27:51.812Z,94597.91
2023-04-15T22:30:18.537Z,94600.69
2023-04-15T22:32:46.351Z,94611.16
2023-04-15T22:35:12.989Z,94595.16
2023-04-15T22:37:39.831Z,94595.34
2023-04-15T22:40:06.649Z,94591.72
2023-04-15T22:42:33.469Z,94590.78
2023-04-15T22:45:00.112Z,94588.28
2023-04-15T22:47:27.088Z,94588.44
2023-04-15T22:49:53.798Z,94583.00
2023-04-15T22:52:30.025Z,94588.06
2023-04-15T22:54:58.086Z,94582.78
2023-04-15T22:57:24.762Z,94580.44
2023-04-15T22:59:51.394Z,94581.41
2023-04-15T23:02:18.208Z,94580.34
2023-04-15T23:04:45.487Z,94583.56
2023-04-15T23:07:12.256Z,94574.81
2023-04-15T23:09:39.328Z,94587.44
2023-04-15T23:12:07.268Z,94581.38
2023-04-15T23:14:33.767Z,94581.69
2023-04-15T23:17:00.371Z,94580.75
2023-04-15T23:19:26.924Z,94579.59
2023-04-15T23:21:53.916Z,94583.19
2023-04-15T23:24:20.643Z,94589.44
2023-04-15T23:26:47.201Z,94580.13
2023-04-15T23:29:14.160Z,94587.78
2023-04-15T23:31:41.762Z,94581.09
2023-04-15T23:34:08.532Z,94577.66
2023-04-15T23:36:35.181Z,94580.69
2023-04-15T23:39:01.774Z,94586.94
2023-04-15T23:41:28.432Z,94581.84
2023-04-15T23:43:55.036Z,94582.22
2023-04-15T23:46:21.822Z,94579.13
2023-04-15T23:48:49.121Z,94580.06
2023-04-15T23:51:16.504Z,94580.47
2023-04-15T23:53:43.094Z,94577.50
2023-04-15T23:56:09.656Z,94571.63
2023-04-15T23:58:36.572Z,94568.81
